Mimmi — LG8297 — position and weather

sailwx.info

Track history (hours):
 
Tides and Currents Weather Stations Pressure Air Temp Water Temp Dewpoint Dewpoint Depression Visibility Wind Speed Wind Dir Waves Ship Positions

Mimmi

Last reported at 2017-Oct-17 00:58 UTC. Time now 2017-Oct-17 01:21 UTC.
Position N 69°59' E 023°20'.

Length 15 m.

Type: Dredging. MMSI: 257676500.

Date/timePositionNaut miles runAvg speedWind from/ knotsBaromVisibWave heightAir tempDewpointWater temp
2017-Oct-17 00:58N 69°59' E 023°20'0 0.0
2017-Oct-17 00:25N 69°59' E 023°20'0 0.0
2017-Oct-16 23:58N 69°59' E 023°20'0 0.0
2017-Oct-16 23:28N 69°59' E 023°20'0 0.0
2017-Oct-16 22:58N 69°59' E 023°20'0 0.0
2017-Oct-16 22:28N 69°59' E 023°20'0 0.0
2017-Oct-16 21:58N 69°59' E 023°20'0 0.0
2017-Oct-16 21:28N 69°59' E 023°20'0 0.0
2017-Oct-16 20:55N 69°59' E 023°20'0 0.0
2017-Oct-16 20:28N 69°59' E 023°20'0 0.0
2017-Oct-16 19:58N 69°59' E 023°20'0 0.0
2017-Oct-16 19:28N 69°59' E 023°20'0 0.0
2017-Oct-16 18:58N 69°59' E 023°20'1 1.7
2017-Oct-16 18:24N 69°59' E 023°18'0 0.0
2017-Oct-16 18:00N 69°59' E 023°18'1 1.4
2017-Oct-16 17:30N 70°00' E 023°18'5 8.8
2017-Oct-16 16:59N 70°04' E 023°10'4 8.7
2017-Oct-16 16:30N 70°08' E 023°06'4 9.0
2017-Oct-16 16:00N 70°12' E 023°04'5 9.0
2017-Oct-16 15:29N 70°17' E 023°02'2 4.5
2017-Oct-16 15:00N 70°18' E 022°56'0 0.1
2017-Oct-16 14:30N 70°18' E 022°56'0 0.3
2017-Oct-16 13:30N 70°18' E 022°56'2 3.4
2017-Oct-16 13:00N 70°20' E 022°60'2 4.7
2017-Oct-16 12:30N 70°21' E 023°05'3 5.9
2017-Oct-16 12:00N 70°20' E 022°57'2 3.5
2017-Oct-16 11:29N 70°19' E 022°52'0 1.0
2017-Oct-16 11:00N 70°19' E 022°54'0 0.1
2017-Oct-16 10:30N 70°19' E 022°54'0 0.1
2017-Oct-16 10:00N 70°19' E 022°54'0 0.0
2017-Oct-16 09:30N 70°19' E 022°54'0 0.0
2017-Oct-16 08:59N 70°19' E 022°54'0 0.1
2017-Oct-16 08:29N 70°19' E 022°54'0 0.1
2017-Oct-16 08:00N 70°19' E 022°54'1 1.7
2017-Oct-16 07:30N 70°20' E 022°55'1 1.8
2017-Oct-16 07:00N 70°19' E 022°58'1 2.7
2017-Oct-16 06:30N 70°18' E 022°56'0 0.2
2017-Oct-16 05:58N 70°18' E 022°56'0 0.0
2017-Oct-16 05:30N 70°18' E 022°56'0 0.0
2017-Oct-16 04:59N 70°18' E 022°56'0 0.0
2017-Oct-16 04:29N 70°18' E 022°56'0 0.0
2017-Oct-16 03:59N 70°18' E 022°56'0 0.0
2017-Oct-16 03:29N 70°18' E 022°56'0 0.0
2017-Oct-16 02:59N 70°18' E 022°56'0 0.0
2017-Oct-16 02:29N 70°18' E 022°56'0 0.0
2017-Oct-16 01:59N 70°18' E 022°56'0 0.0
2017-Oct-16 01:29N 70°18' E 022°56'0 0.0
2017-Oct-16 00:59N 70°18' E 022°56'0 0.0
2017-Oct-16 00:29N 70°18' E 022°56'0 0.0
2017-Oct-15 23:59N 70°18' E 022°56'0 0.0
2017-Oct-15 23:29N 70°18' E 022°56'0 0.0
2017-Oct-15 22:59N 70°18' E 022°56'0 0.0
2017-Oct-15 22:29N 70°18' E 022°56'0 0.0
2017-Oct-15 21:59N 70°18' E 022°56'0 0.0
2017-Oct-15 21:29N 70°18' E 022°56'0 0.0
2017-Oct-15 20:59N 70°18' E 022°56'0 0.0
2017-Oct-15 20:29N 70°18' E 022°56'0 0.0
2017-Oct-15 19:59N 70°18' E 022°56'0 0.0
2017-Oct-15 19:29N 70°18' E 022°56'0 0.0
2017-Oct-15 18:59N 70°18' E 022°56'0 0.0
2017-Oct-15 18:29N 70°18' E 022°56'0 0.0
2017-Oct-15 17:59N 70°18' E 022°56'0 0.0
2017-Oct-15 17:29N 70°18' E 022°56'0 0.0
2017-Oct-15 16:59N 70°18' E 022°56'0 0.0
2017-Oct-15 16:29N 70°18' E 022°56'0 0.0
2017-Oct-15 15:59N 70°18' E 022°56'2 4.8
2017-Oct-15 15:30N 70°20' E 023°01'2 2.4
2017-Oct-15 14:44N 70°21' E 023°05'0 0.0
2017-Oct-15 14:00N 70°21' E 023°05'2 4.4
2017-Oct-15 13:30N 70°19' E 023°00'2 3.9
2017-Oct-15 13:00N 70°18' E 022°56'1 2.9
2017-Oct-15 12:30N 70°19' E 022°58'2 3.0
2017-Oct-15 12:00N 70°19' E 022°54'0 0.2
2017-Oct-15 11:28N 70°19' E 022°54'0 0.0
2017-Oct-15 10:59N 70°19' E 022°54'0 0.1
2017-Oct-15 10:29N 70°19' E 022°54'0 0.0
2017-Oct-15 10:00N 70°19' E 022°54'0 0.0
2017-Oct-15 09:28N 70°19' E 022°54'0 0.0
2017-Oct-15 08:58N 70°19' E 022°54'0 0.0
2017-Oct-15 08:28N 70°19' E 022°54'0 0.0
2017-Oct-15 07:58N 70°19' E 022°54'0 0.1
2017-Oct-15 07:28N 70°19' E 022°54'0 0.0
2017-Oct-15 06:59N 70°19' E 022°54'0 0.0
2017-Oct-15 06:29N 70°19' E 022°54'0 0.1
2017-Oct-15 05:59N 70°19' E 022°54'0 0.8
2017-Oct-15 05:30N 70°19' E 022°52'0 0.0
2017-Oct-15 05:00N 70°19' E 022°52'0 0.0
2017-Oct-15 04:30N 70°19' E 022°52'0 0.0
2017-Oct-15 04:00N 70°19' E 022°52'0 0.0
2017-Oct-15 03:30N 70°19' E 022°52'0 0.0
2017-Oct-15 03:00N 70°19' E 022°52'0 0.0
2017-Oct-15 02:30N 70°19' E 022°52'0 0.0
2017-Oct-15 02:00N 70°19' E 022°52'0 0.0
2017-Oct-15 01:30N 70°19' E 022°52'0 0.0
2017-Oct-15 01:00N 70°19' E 022°52'0 0.0
2017-Oct-15 00:30N 70°19' E 022°52'0 0.0
2017-Oct-15 00:00N 70°19' E 022°52'0 0.0
2017-Oct-14 23:30N 70°19' E 022°52'0 0.0
2017-Oct-14 23:00N 70°19' E 022°52'0 0.0
2017-Oct-14 22:30N 70°19' E 022°52'0 0.0
2017-Oct-14 22:00N 70°19' E 022°52'0 0.0
2017-Oct-14 21:30N 70°19' E 022°52'0 0.0
2017-Oct-14 21:00N 70°19' E 022°52'0 0.0
2017-Oct-14 20:30N 70°19' E 022°52'0 0.0
2017-Oct-14 20:00N 70°19' E 022°52'0 0.0
2017-Oct-14 19:30N 70°19' E 022°52'0 0.0
2017-Oct-14 19:00N 70°19' E 022°52'0 0.0
2017-Oct-14 18:30N 70°19' E 022°52'0 0.0
2017-Oct-14 18:00N 70°19' E 022°52'0 0.0
2017-Oct-14 17:30N 70°19' E 022°52'0 0.0
2017-Oct-14 17:00N 70°19' E 022°52'0 0.7
2017-Oct-14 16:28N 70°19' E 022°54'0 0.0
2017-Oct-14 15:58N 70°19' E 022°54'0 0.0
2017-Oct-14 15:27N 70°19' E 022°54'0 0.1
2017-Oct-14 14:59N 70°19' E 022°54'0 0.0
2017-Oct-14 14:30N 70°19' E 022°54'0 0.0
2017-Oct-14 13:59N 70°19' E 022°54'0 0.0
2017-Oct-14 13:30N 70°19' E 022°54'0 0.1
2017-Oct-14 12:58N 70°19' E 022°54'0 0.0
2017-Oct-14 12:28N 70°19' E 022°54'0 0.0
2017-Oct-14 11:58N 70°19' E 022°54'0 0.1
2017-Oct-14 11:29N 70°19' E 022°54'0 0.1
2017-Oct-14 11:00N 70°19' E 022°54'0 0.2
2017-Oct-14 10:29N 70°19' E 022°54'1 2.5
2017-Oct-14 10:00N 70°20' E 022°55'1 2.4
2017-Oct-14 09:23N 70°19' E 022°52'0 1.0
2017-Oct-14 08:58N 70°19' E 022°54'0 0.9
2017-Oct-14 08:30N 70°19' E 022°52'0 0.0
2017-Oct-14 08:00N 70°19' E 022°52'1 2.8
2017-Oct-14 07:30N 70°20' E 022°56'4 8.2
2017-Oct-14 07:00N 70°16' E 023°02'5 9.4
2017-Oct-14 06:29N 70°12' E 023°04'5 9.6
2017-Oct-14 05:59N 70°07' E 023°06'5 9.6
2017-Oct-14 05:29N 70°03' E 023°13'4 8.8
2017-Oct-14 04:59N 69°59' E 023°20'0 0.3
2017-Oct-14 04:29N 69°59' E 023°20'0 0.0
2017-Oct-14 03:59N 69°59' E 023°20'0 0.0
2017-Oct-14 03:29N 69°59' E 023°20'0 0.0
2017-Oct-14 02:59N 69°59' E 023°20'0 0.0
2017-Oct-14 02:29N 69°59' E 023°20'0 0.0
2017-Oct-14 01:59N 69°59' E 023°20'0 0.0
2017-Oct-14 01:29N 69°59' E 023°20'0 0.0
2017-Oct-14 00:59N 69°59' E 023°20'0 0.0
2017-Oct-14 00:29N 69°59' E 023°20'0 0.0
2017-Oct-13 23:59N 69°59' E 023°20'0 0.0
2017-Oct-13 23:29N 69°59' E 023°20'0 0.0
2017-Oct-13 22:59N 69°59' E 023°20'0 0.0
2017-Oct-13 22:29N 69°59' E 023°20'0 0.0
2017-Oct-13 21:59N 69°59' E 023°20'0 0.0
2017-Oct-13 21:29N 69°59' E 023°20'0 0.0
2017-Oct-13 20:59N 69°59' E 023°20'0 0.0
2017-Oct-13 20:29N 69°59' E 023°20'0 0.0
2017-Oct-13 19:59N 69°59' E 023°20'0 0.0
2017-Oct-13 19:29N 69°59' E 023°20'2 3.3
2017-Oct-13 19:00N 70°00' E 023°18'4 8.6
2017-Oct-13 18:29N 70°04' E 023°10'4 7.9
2017-Oct-13 18:00N 70°08' E 023°08'4 8.1
2017-Oct-13 17:30N 70°12' E 023°07'4 8.6
2017-Oct-13 17:00N 70°16' E 023°02'4 8.6
2017-Oct-13 16:30N 70°20' E 022°58'2 4.0
2017-Oct-13 16:00N 70°19' E 022°53'0 0.2
2017-Oct-13 15:29N 70°19' E 022°52'0 0.0
2017-Oct-13 14:59N 70°19' E 022°52'0 0.7
2017-Oct-13 14:29N 70°19' E 022°53'0 0.1
2017-Oct-13 13:59N 70°19' E 022°54'0 0.1
2017-Oct-13 13:30N 70°19' E 022°54'0 0.2
2017-Oct-13 13:00N 70°19' E 022°53'0 0.6
2017-Oct-13 12:26N 70°19' E 022°52'0 0.0
2017-Oct-13 11:56N 70°19' E 022°52'0 0.0
2017-Oct-13 11:26N 70°19' E 022°52'0 0.0
2017-Oct-13 10:56N 70°19' E 022°52'0 0.0
2017-Oct-13 10:26N 70°19' E 022°52'2 4.7
2017-Oct-13 10:00N 70°20' E 022°58'2 4.7
2017-Oct-13 09:30N 70°21' E 023°04'0 0.5
2017-Oct-13 09:00N 70°21' E 023°05'0 0.2
2017-Oct-13 08:27N 70°21' E 023°05'0 0.3
2017-Oct-13 07:59N 70°21' E 023°04'13 0.8
2017-Oct-12 16:24N 70°09' E 023°16'0 1.0
2017-Oct-12 16:00N 70°09' E 023°16'3 6.5
2017-Oct-12 15:30N 70°06' E 023°10'4 8.3
2017-Oct-12 15:00N 70°02' E 023°13'3 6.6
2017-Oct-12 14:30N 69°59' E 023°18'1 1.3
2017-Oct-12 14:00N 69°59' E 023°18'0 0.1
2017-Oct-12 13:29N 69°59' E 023°18'0 0.0
2017-Oct-12 13:00N 69°59' E 023°18'2 3.8
2017-Oct-12 12:29N 70°01' E 023°17'5 9.2
2017-Oct-12 11:59N 70°04' E 023°09'4 8.7
2017-Oct-12 11:30N 70°08' E 023°05'5 9.2
2017-Oct-12 11:00N 70°13' E 023°03'5 9.4
2017-Oct-12 10:31N 70°18' E 023°01'3 6.2
2017-Oct-12 10:00N 70°19' E 022°53'0 0.6
2017-Oct-12 09:26N 70°19' E 022°54'0 0.1
2017-Oct-12 08:58N 70°19' E 022°54'0 0.1
2017-Oct-12 08:30N 70°19' E 022°54'0 0.1
2017-Oct-12 07:59N 70°19' E 022°54'0 0.3
2017-Oct-12 07:29N 70°19' E 022°53'0 0.3
2017-Oct-12 06:59N 70°19' E 022°54'0 0.1
2017-Oct-12 06:29N 70°19' E 022°54'0 1.0
2017-Oct-12 06:00N 70°19' E 022°52'0 0.1
2017-Oct-12 05:27N 70°19' E 022°52'0 0.0
2017-Oct-12 05:00N 70°19' E 022°52'0 0.0
2017-Oct-12 04:30N 70°19' E 022°52'0 0.0
2017-Oct-12 04:00N 70°19' E 022°52'0 0.0
2017-Oct-12 03:31N 70°19' E 022°52'0 0.0
2017-Oct-12 03:00N 70°19' E 022°52'0 0.0
2017-Oct-12 02:30N 70°19' E 022°52'0 0.0
2017-Oct-12 02:00N 70°19' E 022°52'0 0.0
2017-Oct-12 01:24N 70°19' E 022°52'0 0.0
2017-Oct-12 01:00N 70°19' E 022°52'0 0.0
2017-Oct-12 00:30N 70°19' E 022°52'0 0.0
2017-Oct-12 00:00N 70°19' E 022°52'0 0.0
2017-Oct-11 23:30N 70°19' E 022°52'0 0.0
2017-Oct-11 23:00N 70°19' E 022°52'0 0.0
2017-Oct-11 22:31N 70°19' E 022°52'0 0.0
2017-Oct-11 22:00N 70°19' E 022°52'0 0.0
2017-Oct-11 21:31N 70°19' E 022°52'0 0.0
2017-Oct-11 21:00N 70°19' E 022°52'0 0.0
2017-Oct-11 20:30N 70°19' E 022°52'0 0.0
2017-Oct-11 20:00N 70°19' E 022°52'0 0.0
2017-Oct-11 19:30N 70°19' E 022°52'0 0.0
2017-Oct-11 19:01N 70°19' E 022°52'0 0.0
2017-Oct-11 18:30N 70°19' E 022°52'0 0.0
2017-Oct-11 18:00N 70°19' E 022°52'0 0.0
2017-Oct-11 17:30N 70°19' E 022°52'0 0.0
2017-Oct-11 17:00N 70°19' E 022°52'22 1.3
2017-Oct-11 00:00N 69°59' E 023°20'0 0.0
2017-Oct-10 23:30N 69°59' E 023°20'0 0.0
2017-Oct-10 23:00N 69°59' E 023°20'0 0.0
2017-Oct-10 22:30N 69°59' E 023°20'0 0.0
2017-Oct-10 22:00N 69°59' E 023°20'0 0.0
2017-Oct-10 21:30N 69°59' E 023°20'0 0.0
2017-Oct-10 21:00N 69°59' E 023°20'0 0.0
2017-Oct-10 20:30N 69°59' E 023°20'0 0.0
2017-Oct-10 20:00N 69°59' E 023°20'0 0.0
2017-Oct-10 19:30N 69°59' E 023°20'0 0.0
2017-Oct-10 19:00N 69°59' E 023°20'0 0.0
2017-Oct-10 18:30N 69°59' E 023°20'0 0.0
2017-Oct-10 18:00N 69°59' E 023°20'0 0.0
2017-Oct-10 17:30N 69°59' E 023°20'0 0.0
2017-Oct-10 17:00N 69°59' E 023°20'0 0.0
2017-Oct-10 16:30N 69°59' E 023°20'0 0.0
2017-Oct-10 16:00N 69°59' E 023°20'0 0.0
2017-Oct-10 15:30N 69°59' E 023°20'0 0.0
2017-Oct-10 15:00N 69°59' E 023°20'0 0.0
2017-Oct-10 14:00N 69°59' E 023°20'0 0.0
2017-Oct-10 13:30N 69°59' E 023°20'0 0.0
2017-Oct-10 13:00N 69°59' E 023°20'0 0.0
2017-Oct-10 12:30N 69°59' E 023°20'0 0.0
2017-Oct-10 12:00N 69°59' E 023°20'0 0.3
2017-Oct-10 11:28N 69°59' E 023°20'0 0.2
2017-Oct-10 11:00N 69°59' E 023°20'4 8.1
2017-Oct-10 10:30N 70°02' E 023°13'4 8.6
2017-Oct-10 09:59N 70°06' E 023°07'4 8.8
2017-Oct-10 09:30N 70°10' E 023°08'4 9.0
2017-Oct-10 09:00N 70°15' E 023°13'5 9.7
2017-Oct-10 08:29N 70°19' E 023°22'5 9.8
2017-Oct-10 08:00N 70°22' E 023°31'510.1
2017-Oct-10 07:30N 70°26' E 023°40'5 9.5
2017-Oct-10 07:00N 70°30' E 023°50'6 9.6
2017-Oct-10 06:25N 70°33' E 024°03'4 9.0
2017-Oct-10 05:59N 70°36' E 024°09'4 9.1
2017-Oct-10 05:30N 70°40' E 024°14'4 8.3
2017-Oct-10 05:00N 70°42' E 024°26'2 0.1
2017-Oct-09 17:16N 70°40' E 024°29'2 8.6
2017-Oct-09 16:59N 70°42' E 024°25'4 8.9
2017-Oct-09 16:30N 70°46' E 024°17'4 8.4
2017-Oct-09 15:59N 70°50' E 024°13'4 7.6
2017-Oct-09 15:30N 70°53' E 024°20'5 9.1
2017-Oct-09 14:59N 70°50' E 024°32'2 3.7
2017-Oct-09 14:30N 70°49' E 024°36'0 0.0
2017-Oct-09 13:57N 70°49' E 024°36'0 0.0
2017-Oct-09 13:27N 70°49' E 024°36'0 0.0
2017-Oct-09 12:57N 70°49' E 024°36'0 0.0
2017-Oct-09 12:27N 70°49' E 024°36'0 0.1
2017-Oct-09 11:59N 70°49' E 024°36'0 0.0
2017-Oct-09 11:29N 70°49' E 024°36'0 0.0
2017-Oct-09 10:59N 70°49' E 024°36'1 0.9
2017-Oct-09 09:49N 70°48' E 024°33'3 9.3
2017-Oct-09 09:30N 70°51' E 024°28'3 6.6
2017-Oct-09 08:59N 70°52' E 024°18'4 7.8
2017-Oct-09 08:30N 70°49' E 024°13'5 8.7
2017-Oct-09 07:59N 70°45' E 024°19'5 9.3
2017-Oct-09 07:30N 70°42' E 024°28'4 6.3
2017-Oct-09 06:54N 70°38' E 024°34'0 0.0
2017-Oct-09 06:27N 70°38' E 024°34'1 0.1
2017-Oct-08 14:56N 70°39' E 024°34'2 0.5
2017-Oct-08 11:24N 70°40' E 024°29'1 1.2
2017-Oct-08 10:55N 70°40' E 024°31'1 0.7
2017-Oct-08 09:37N 70°39' E 024°33'1 9.6
2017-Oct-08 09:30N 70°40' E 024°31'5 9.4
2017-Oct-08 09:00N 70°44' E 024°21'5 9.1
2017-Oct-08 08:30N 70°47' E 024°13'5 9.6
2017-Oct-08 07:59N 70°52' E 024°17'3 7.2
2017-Oct-08 07:30N 70°51' E 024°27'4 4.6
2017-Oct-08 06:38N 70°48' E 024°34'1 5.7
2017-Oct-08 06:28N 70°48' E 024°36'1 1.2
2017-Oct-08 05:54N 70°49' E 024°36'0 0.0
2017-Oct-08 05:30N 70°49' E 024°36'0 0.0
2017-Oct-08 05:00N 70°49' E 024°36'0 0.0
2017-Oct-08 04:30N 70°49' E 024°36'0 0.0
2017-Oct-08 04:00N 70°49' E 024°36'0 0.0
2017-Oct-08 03:30N 70°49' E 024°36'0 0.0
2017-Oct-08 02:57N 70°49' E 024°36'0 0.0
2017-Oct-08 02:27N 70°49' E 024°36'0 0.0
2017-Oct-08 02:00N 70°49' E 024°36'0 0.0
2017-Oct-08 01:21N 70°49' E 024°36'0 0.0
2017-Oct-08 01:00N 70°49' E 024°36'0 0.0
2017-Oct-08 00:30N 70°49' E 024°36'0 0.0
2017-Oct-08 00:00N 70°49' E 024°36'0 0.0
2017-Oct-07 23:27N 70°49' E 024°36'0 0.0
2017-Oct-07 23:00N 70°49' E 024°36'0 0.0
2017-Oct-07 22:30N 70°49' E 024°36'0 0.0
2017-Oct-07 22:00N 70°49' E 024°36'0 0.0
2017-Oct-07 21:30N 70°49' E 024°36'0 0.0
2017-Oct-07 21:00N 70°49' E 024°36'0 0.0
2017-Oct-07 20:30N 70°49' E 024°36'0 0.0
2017-Oct-07 20:00N 70°49' E 024°36'0 0.0
2017-Oct-07 19:30N 70°49' E 024°36'0 0.0
2017-Oct-07 18:57N 70°49' E 024°36'0 0.0
2017-Oct-07 18:30N 70°49' E 024°36'0 0.0
2017-Oct-07 18:00N 70°49' E 024°36'0 0.0
2017-Oct-07 17:30N 70°49' E 024°36'0 0.0
2017-Oct-07 17:00N 70°49' E 024°36'0 0.0
2017-Oct-07 16:30N 70°49' E 024°36'0 0.4
2017-Oct-07 16:00N 70°49' E 024°36'0 0.4
2017-Oct-07 15:28N 70°49' E 024°36'0 0.1
2017-Oct-07 15:00N 70°49' E 024°36'0 0.0
2017-Oct-07 14:30N 70°49' E 024°36'0 0.0
2017-Oct-07 13:58N 70°49' E 024°36'0 0.1
2017-Oct-07 13:22N 70°49' E 024°35'0 0.2
2017-Oct-07 13:00N 70°49' E 024°36'0 0.1
2017-Oct-07 12:29N 70°49' E 024°36'0 0.0
2017-Oct-07 11:59N 70°49' E 024°36'0 0.1
2017-Oct-07 11:29N 70°49' E 024°36'0 0.1
2017-Oct-07 11:00N 70°49' E 024°36'0 0.1
2017-Oct-07 10:30N 70°49' E 024°36'0 0.1
2017-Oct-07 09:57N 70°49' E 024°36'0 0.1
2017-Oct-07 09:29N 70°49' E 024°36'1 0.7
2017-Oct-07 08:28N 70°48' E 024°34'4 8.7
2017-Oct-07 07:59N 70°53' E 024°33'5 9.3
2017-Oct-07 07:29N 70°57' E 024°32'4 7.3
2017-Oct-07 07:00N 70°60' E 024°39'1 1.1
2017-Oct-07 06:30N 70°60' E 024°41'0 0.0
2017-Oct-07 06:00N 70°60' E 024°41'0 0.0
2017-Oct-07 05:27N 70°60' E 024°41'2 5.6
2017-Oct-07 05:00N 70°59' E 024°34'4 9.0
2017-Oct-07 04:30N 70°55' E 024°32'5 9.5
2017-Oct-07 04:00N 70°50' E 024°33'1 2.2
2017-Oct-07 03:28N 70°49' E 024°36'0 0.0
2017-Oct-07 02:58N 70°49' E 024°36'0 0.0
2017-Oct-07 02:28N 70°49' E 024°36'0 0.0
2017-Oct-07 01:58N 70°49' E 024°36'0 0.0
2017-Oct-07 01:28N 70°49' E 024°36'0 0.0
2017-Oct-07 00:58N 70°49' E 024°36'  
Track history (hours):
 
Tides and Currents Weather Stations Pressure Air Temp Water Temp Dewpoint Dewpoint Depression Visibility Wind Speed Wind Dir Waves Ship Positions

Mimmi

Last reported at 2017-Oct-17 00:58 UTC. Time now 2017-Oct-17 01:21 UTC.
Position N 69°59' E 023°20'.

Length 15 m.

Type: Dredging. MMSI: 257676500.

Date/timePositionNaut miles runAvg speedWind from/ knotsBaromVisibWave heightAir tempDewpointWater temp
2017-Oct-17 00:58N 69°59' E 023°20'0 0.0
2017-Oct-17 00:25N 69°59' E 023°20'0 0.0
2017-Oct-16 23:58N 69°59' E 023°20'0 0.0
2017-Oct-16 23:28N 69°59' E 023°20'0 0.0
2017-Oct-16 22:58N 69°59' E 023°20'0 0.0
2017-Oct-16 22:28N 69°59' E 023°20'0 0.0
2017-Oct-16 21:58N 69°59' E 023°20'0 0.0
2017-Oct-16 21:28N 69°59' E 023°20'0 0.0
2017-Oct-16 20:55N 69°59' E 023°20'0 0.0
2017-Oct-16 20:28N 69°59' E 023°20'0 0.0
2017-Oct-16 19:58N 69°59' E 023°20'0 0.0
2017-Oct-16 19:28N 69°59' E 023°20'0 0.0
2017-Oct-16 18:58N 69°59' E 023°20'1 1.7
2017-Oct-16 18:24N 69°59' E 023°18'0 0.0
2017-Oct-16 18:00N 69°59' E 023°18'1 1.4
2017-Oct-16 17:30N 70°00' E 023°18'5 8.8
2017-Oct-16 16:59N 70°04' E 023°10'4 8.7
2017-Oct-16 16:30N 70°08' E 023°06'4 9.0
2017-Oct-16 16:00N 70°12' E 023°04'5 9.0
2017-Oct-16 15:29N 70°17' E 023°02'2 4.5
2017-Oct-16 15:00N 70°18' E 022°56'0 0.1
2017-Oct-16 14:30N 70°18' E 022°56'0 0.3
2017-Oct-16 13:30N 70°18' E 022°56'2 3.4
2017-Oct-16 13:00N 70°20' E 022°60'2 4.7
2017-Oct-16 12:30N 70°21' E 023°05'3 5.9
2017-Oct-16 12:00N 70°20' E 022°57'2 3.5
2017-Oct-16 11:29N 70°19' E 022°52'0 1.0
2017-Oct-16 11:00N 70°19' E 022°54'0 0.1
2017-Oct-16 10:30N 70°19' E 022°54'0 0.1
2017-Oct-16 10:00N 70°19' E 022°54'0 0.0
2017-Oct-16 09:30N 70°19' E 022°54'0 0.0
2017-Oct-16 08:59N 70°19' E 022°54'0 0.1
2017-Oct-16 08:29N 70°19' E 022°54'0 0.1
2017-Oct-16 08:00N 70°19' E 022°54'1 1.7
2017-Oct-16 07:30N 70°20' E 022°55'1 1.8
2017-Oct-16 07:00N 70°19' E 022°58'1 2.7
2017-Oct-16 06:30N 70°18' E 022°56'0 0.2
2017-Oct-16 05:58N 70°18' E 022°56'0 0.0
2017-Oct-16 05:30N 70°18' E 022°56'0 0.0
2017-Oct-16 04:59N 70°18' E 022°56'0 0.0
2017-Oct-16 04:29N 70°18' E 022°56'0 0.0
2017-Oct-16 03:59N 70°18' E 022°56'0 0.0
2017-Oct-16 03:29N 70°18' E 022°56'0 0.0
2017-Oct-16 02:59N 70°18' E 022°56'0 0.0
2017-Oct-16 02:29N 70°18' E 022°56'0 0.0
2017-Oct-16 01:59N 70°18' E 022°56'0 0.0
2017-Oct-16 01:29N 70°18' E 022°56'0 0.0
2017-Oct-16 00:59N 70°18' E 022°56'0 0.0
2017-Oct-16 00:29N 70°18' E 022°56'0 0.0
2017-Oct-15 23:59N 70°18' E 022°56'0 0.0
2017-Oct-15 23:29N 70°18' E 022°56'0 0.0
2017-Oct-15 22:59N 70°18' E 022°56'0 0.0
2017-Oct-15 22:29N 70°18' E 022°56'0 0.0
2017-Oct-15 21:59N 70°18' E 022°56'0 0.0
2017-Oct-15 21:29N 70°18' E 022°56'0 0.0
2017-Oct-15 20:59N 70°18' E 022°56'0 0.0
2017-Oct-15 20:29N 70°18' E 022°56'0 0.0
2017-Oct-15 19:59N 70°18' E 022°56'0 0.0
2017-Oct-15 19:29N 70°18' E 022°56'0 0.0
2017-Oct-15 18:59N 70°18' E 022°56'0 0.0
2017-Oct-15 18:29N 70°18' E 022°56'0 0.0
2017-Oct-15 17:59N 70°18' E 022°56'0 0.0
2017-Oct-15 17:29N 70°18' E 022°56'0 0.0
2017-Oct-15 16:59N 70°18' E 022°56'0 0.0
2017-Oct-15 16:29N 70°18' E 022°56'0 0.0
2017-Oct-15 15:59N 70°18' E 022°56'2 4.8
2017-Oct-15 15:30N 70°20' E 023°01'2 2.4
2017-Oct-15 14:44N 70°21' E 023°05'0 0.0
2017-Oct-15 14:00N 70°21' E 023°05'2 4.4
2017-Oct-15 13:30N 70°19' E 023°00'2 3.9
2017-Oct-15 13:00N 70°18' E 022°56'1 2.9
2017-Oct-15 12:30N 70°19' E 022°58'2 3.0
2017-Oct-15 12:00N 70°19' E 022°54'0 0.2
2017-Oct-15 11:28N 70°19' E 022°54'0 0.0
2017-Oct-15 10:59N 70°19' E 022°54'0 0.1
2017-Oct-15 10:29N 70°19' E 022°54'0 0.0
2017-Oct-15 10:00N 70°19' E 022°54'0 0.0
2017-Oct-15 09:28N 70°19' E 022°54'0 0.0
2017-Oct-15 08:58N 70°19' E 022°54'0 0.0
2017-Oct-15 08:28N 70°19' E 022°54'0 0.0
2017-Oct-15 07:58N 70°19' E 022°54'0 0.1
2017-Oct-15 07:28N 70°19' E 022°54'0 0.0
2017-Oct-15 06:59N 70°19' E 022°54'0 0.0
2017-Oct-15 06:29N 70°19' E 022°54'0 0.1
2017-Oct-15 05:59N 70°19' E 022°54'0 0.8
2017-Oct-15 05:30N 70°19' E 022°52'0 0.0
2017-Oct-15 05:00N 70°19' E 022°52'0 0.0
2017-Oct-15 04:30N 70°19' E 022°52'0 0.0
2017-Oct-15 04:00N 70°19' E 022°52'0 0.0
2017-Oct-15 03:30N 70°19' E 022°52'0 0.0
2017-Oct-15 03:00N 70°19' E 022°52'0 0.0
2017-Oct-15 02:30N 70°19' E 022°52'0 0.0
2017-Oct-15 02:00N 70°19' E 022°52'0 0.0
2017-Oct-15 01:30N 70°19' E 022°52'0 0.0
2017-Oct-15 01:00N 70°19' E 022°52'0 0.0
2017-Oct-15 00:30N 70°19' E 022°52'0 0.0
2017-Oct-15 00:00N 70°19' E 022°52'0 0.0
2017-Oct-14 23:30N 70°19' E 022°52'0 0.0
2017-Oct-14 23:00N 70°19' E 022°52'0 0.0
2017-Oct-14 22:30N 70°19' E 022°52'0 0.0
2017-Oct-14 22:00N 70°19' E 022°52'0 0.0
2017-Oct-14 21:30N 70°19' E 022°52'0 0.0
2017-Oct-14 21:00N 70°19' E 022°52'0 0.0
2017-Oct-14 20:30N 70°19' E 022°52'0 0.0
2017-Oct-14 20:00N 70°19' E 022°52'0 0.0
2017-Oct-14 19:30N 70°19' E 022°52'0 0.0
2017-Oct-14 19:00N 70°19' E 022°52'0 0.0
2017-Oct-14 18:30N 70°19' E 022°52'0 0.0
2017-Oct-14 18:00N 70°19' E 022°52'0 0.0
2017-Oct-14 17:30N 70°19' E 022°52'0 0.0
2017-Oct-14 17:00N 70°19' E 022°52'0 0.7
2017-Oct-14 16:28N 70°19' E 022°54'0 0.0
2017-Oct-14 15:58N 70°19' E 022°54'0 0.0
2017-Oct-14 15:27N 70°19' E 022°54'0 0.1
2017-Oct-14 14:59N 70°19' E 022°54'0 0.0
2017-Oct-14 14:30N 70°19' E 022°54'0 0.0
2017-Oct-14 13:59N 70°19' E 022°54'0 0.0
2017-Oct-14 13:30N 70°19' E 022°54'0 0.1
2017-Oct-14 12:58N 70°19' E 022°54'0 0.0
2017-Oct-14 12:28N 70°19' E 022°54'0 0.0
2017-Oct-14 11:58N 70°19' E 022°54'0 0.1
2017-Oct-14 11:29N 70°19' E 022°54'0 0.1
2017-Oct-14 11:00N 70°19' E 022°54'0 0.2
2017-Oct-14 10:29N 70°19' E 022°54'1 2.5
2017-Oct-14 10:00N 70°20' E 022°55'1 2.4
2017-Oct-14 09:23N 70°19' E 022°52'0 1.0
2017-Oct-14 08:58N 70°19' E 022°54'0 0.9
2017-Oct-14 08:30N 70°19' E 022°52'0 0.0
2017-Oct-14 08:00N 70°19' E 022°52'1 2.8
2017-Oct-14 07:30N 70°20' E 022°56'4 8.2
2017-Oct-14 07:00N 70°16' E 023°02'5 9.4
2017-Oct-14 06:29N 70°12' E 023°04'5 9.6
2017-Oct-14 05:59N 70°07' E 023°06'5 9.6
2017-Oct-14 05:29N 70°03' E 023°13'4 8.8
2017-Oct-14 04:59N 69°59' E 023°20'0 0.3
2017-Oct-14 04:29N 69°59' E 023°20'0 0.0
2017-Oct-14 03:59N 69°59' E 023°20'0 0.0
2017-Oct-14 03:29N 69°59' E 023°20'0 0.0
2017-Oct-14 02:59N 69°59' E 023°20'0 0.0
2017-Oct-14 02:29N 69°59' E 023°20'0 0.0
2017-Oct-14 01:59N 69°59' E 023°20'0 0.0
2017-Oct-14 01:29N 69°59' E 023°20'0 0.0
2017-Oct-14 00:59N 69°59' E 023°20'0 0.0
2017-Oct-14 00:29N 69°59' E 023°20'0 0.0
2017-Oct-13 23:59N 69°59' E 023°20'0 0.0
2017-Oct-13 23:29N 69°59' E 023°20'0 0.0
2017-Oct-13 22:59N 69°59' E 023°20'0 0.0
2017-Oct-13 22:29N 69°59' E 023°20'0 0.0
2017-Oct-13 21:59N 69°59' E 023°20'0 0.0
2017-Oct-13 21:29N 69°59' E 023°20'0 0.0
2017-Oct-13 20:59N 69°59' E 023°20'0 0.0
2017-Oct-13 20:29N 69°59' E 023°20'0 0.0
2017-Oct-13 19:59N 69°59' E 023°20'0 0.0
2017-Oct-13 19:29N 69°59' E 023°20'2 3.3
2017-Oct-13 19:00N 70°00' E 023°18'4 8.6
2017-Oct-13 18:29N 70°04' E 023°10'4 7.9
2017-Oct-13 18:00N 70°08' E 023°08'4 8.1
2017-Oct-13 17:30N 70°12' E 023°07'4 8.6
2017-Oct-13 17:00N 70°16' E 023°02'4 8.6
2017-Oct-13 16:30N 70°20' E 022°58'2 4.0
2017-Oct-13 16:00N 70°19' E 022°53'0 0.2
2017-Oct-13 15:29N 70°19' E 022°52'0 0.0
2017-Oct-13 14:59N 70°19' E 022°52'0 0.7
2017-Oct-13 14:29N 70°19' E 022°53'0 0.1
2017-Oct-13 13:59N 70°19' E 022°54'0 0.1
2017-Oct-13 13:30N 70°19' E 022°54'0 0.2
2017-Oct-13 13:00N 70°19' E 022°53'0 0.6
2017-Oct-13 12:26N 70°19' E 022°52'0 0.0
2017-Oct-13 11:56N 70°19' E 022°52'0 0.0
2017-Oct-13 11:26N 70°19' E 022°52'0 0.0
2017-Oct-13 10:56N 70°19' E 022°52'0 0.0
2017-Oct-13 10:26N 70°19' E 022°52'2 4.7
2017-Oct-13 10:00N 70°20' E 022°58'2 4.7
2017-Oct-13 09:30N 70°21' E 023°04'0 0.5
2017-Oct-13 09:00N 70°21' E 023°05'0 0.2
2017-Oct-13 08:27N 70°21' E 023°05'0 0.3
2017-Oct-13 07:59N 70°21' E 023°04'13 0.8
2017-Oct-12 16:24N 70°09' E 023°16'0 1.0
2017-Oct-12 16:00N 70°09' E 023°16'3 6.5
2017-Oct-12 15:30N 70°06' E 023°10'4 8.3
2017-Oct-12 15:00N 70°02' E 023°13'3 6.6
2017-Oct-12 14:30N 69°59' E 023°18'1 1.3
2017-Oct-12 14:00N 69°59' E 023°18'0 0.1
2017-Oct-12 13:29N 69°59' E 023°18'0 0.0
2017-Oct-12 13:00N 69°59' E 023°18'2 3.8
2017-Oct-12 12:29N 70°01' E 023°17'5 9.2
2017-Oct-12 11:59N 70°04' E 023°09'4 8.7
2017-Oct-12 11:30N 70°08' E 023°05'5 9.2
2017-Oct-12 11:00N 70°13' E 023°03'5 9.4
2017-Oct-12 10:31N 70°18' E 023°01'3 6.2
2017-Oct-12 10:00N 70°19' E 022°53'0 0.6
2017-Oct-12 09:26N 70°19' E 022°54'0 0.1
2017-Oct-12 08:58N 70°19' E 022°54'0 0.1
2017-Oct-12 08:30N 70°19' E 022°54'0 0.1
2017-Oct-12 07:59N 70°19' E 022°54'0 0.3
2017-Oct-12 07:29N 70°19' E 022°53'0 0.3
2017-Oct-12 06:59N 70°19' E 022°54'0 0.1
2017-Oct-12 06:29N 70°19' E 022°54'0 1.0
2017-Oct-12 06:00N 70°19' E 022°52'0 0.1
2017-Oct-12 05:27N 70°19' E 022°52'0 0.0
2017-Oct-12 05:00N 70°19' E 022°52'0 0.0
2017-Oct-12 04:30N 70°19' E 022°52'0 0.0
2017-Oct-12 04:00N 70°19' E 022°52'0 0.0
2017-Oct-12 03:31N 70°19' E 022°52'0 0.0
2017-Oct-12 03:00N 70°19' E 022°52'0 0.0
2017-Oct-12 02:30N 70°19' E 022°52'0 0.0
2017-Oct-12 02:00N 70°19' E 022°52'0 0.0
2017-Oct-12 01:24N 70°19' E 022°52'0 0.0
2017-Oct-12 01:00N 70°19' E 022°52'0 0.0
2017-Oct-12 00:30N 70°19' E 022°52'0 0.0
2017-Oct-12 00:00N 70°19' E 022°52'0 0.0
2017-Oct-11 23:30N 70°19' E 022°52'0 0.0
2017-Oct-11 23:00N 70°19' E 022°52'0 0.0
2017-Oct-11 22:31N 70°19' E 022°52'0 0.0
2017-Oct-11 22:00N 70°19' E 022°52'0 0.0
2017-Oct-11 21:31N 70°19' E 022°52'0 0.0
2017-Oct-11 21:00N 70°19' E 022°52'0 0.0
2017-Oct-11 20:30N 70°19' E 022°52'0 0.0
2017-Oct-11 20:00N 70°19' E 022°52'0 0.0
2017-Oct-11 19:30N 70°19' E 022°52'0 0.0
2017-Oct-11 19:01N 70°19' E 022°52'0 0.0
2017-Oct-11 18:30N 70°19' E 022°52'0 0.0
2017-Oct-11 18:00N 70°19' E 022°52'0 0.0
2017-Oct-11 17:30N 70°19' E 022°52'0 0.0
2017-Oct-11 17:00N 70°19' E 022°52'22 1.3
2017-Oct-11 00:00N 69°59' E 023°20'0 0.0
2017-Oct-10 23:30N 69°59' E 023°20'0 0.0
2017-Oct-10 23:00N 69°59' E 023°20'0 0.0
2017-Oct-10 22:30N 69°59' E 023°20'0 0.0
2017-Oct-10 22:00N 69°59' E 023°20'0 0.0
2017-Oct-10 21:30N 69°59' E 023°20'0 0.0
2017-Oct-10 21:00N 69°59' E 023°20'0 0.0
2017-Oct-10 20:30N 69°59' E 023°20'0 0.0
2017-Oct-10 20:00N 69°59' E 023°20'0 0.0
2017-Oct-10 19:30N 69°59' E 023°20'0 0.0
2017-Oct-10 19:00N 69°59' E 023°20'0 0.0
2017-Oct-10 18:30N 69°59' E 023°20'0 0.0
2017-Oct-10 18:00N 69°59' E 023°20'0 0.0
2017-Oct-10 17:30N 69°59' E 023°20'0 0.0
2017-Oct-10 17:00N 69°59' E 023°20'0 0.0
2017-Oct-10 16:30N 69°59' E 023°20'0 0.0
2017-Oct-10 16:00N 69°59' E 023°20'0 0.0
2017-Oct-10 15:30N 69°59' E 023°20'0 0.0
2017-Oct-10 15:00N 69°59' E 023°20'0 0.0
2017-Oct-10 14:00N 69°59' E 023°20'0 0.0
2017-Oct-10 13:30N 69°59' E 023°20'0 0.0
2017-Oct-10 13:00N 69°59' E 023°20'0 0.0
2017-Oct-10 12:30N 69°59' E 023°20'0 0.0
2017-Oct-10 12:00N 69°59' E 023°20'0 0.3
2017-Oct-10 11:28N 69°59' E 023°20'0 0.2
2017-Oct-10 11:00N 69°59' E 023°20'4 8.1
2017-Oct-10 10:30N 70°02' E 023°13'4 8.6
2017-Oct-10 09:59N 70°06' E 023°07'4 8.8
2017-Oct-10 09:30N 70°10' E 023°08'4 9.0
2017-Oct-10 09:00N 70°15' E 023°13'5 9.7
2017-Oct-10 08:29N 70°19' E 023°22'5 9.8
2017-Oct-10 08:00N 70°22' E 023°31'510.1
2017-Oct-10 07:30N 70°26' E 023°40'5 9.5
2017-Oct-10 07:00N 70°30' E 023°50'6 9.6
2017-Oct-10 06:25N 70°33' E 024°03'4 9.0
2017-Oct-10 05:59N 70°36' E 024°09'4 9.1
2017-Oct-10 05:30N 70°40' E 024°14'4 8.3
2017-Oct-10 05:00N 70°42' E 024°26'2 0.1
2017-Oct-09 17:16N 70°40' E 024°29'2 8.6
2017-Oct-09 16:59N 70°42' E 024°25'4 8.9
2017-Oct-09 16:30N 70°46' E 024°17'4 8.4
2017-Oct-09 15:59N 70°50' E 024°13'4 7.6
2017-Oct-09 15:30N 70°53' E 024°20'5 9.1
2017-Oct-09 14:59N 70°50' E 024°32'2 3.7
2017-Oct-09 14:30N 70°49' E 024°36'0 0.0
2017-Oct-09 13:57N 70°49' E 024°36'0 0.0
2017-Oct-09 13:27N 70°49' E 024°36'0 0.0
2017-Oct-09 12:57N 70°49' E 024°36'0 0.0
2017-Oct-09 12:27N 70°49' E 024°36'0 0.1
2017-Oct-09 11:59N 70°49' E 024°36'0 0.0
2017-Oct-09 11:29N 70°49' E 024°36'0 0.0
2017-Oct-09 10:59N 70°49' E 024°36'1 0.9
2017-Oct-09 09:49N 70°48' E 024°33'3 9.3
2017-Oct-09 09:30N 70°51' E 024°28'3 6.6
2017-Oct-09 08:59N 70°52' E 024°18'4 7.8
2017-Oct-09 08:30N 70°49' E 024°13'5 8.7
2017-Oct-09 07:59N 70°45' E 024°19'5 9.3
2017-Oct-09 07:30N 70°42' E 024°28'4 6.3
2017-Oct-09 06:54N 70°38' E 024°34'0 0.0
2017-Oct-09 06:27N 70°38' E 024°34'1 0.1
2017-Oct-08 14:56N 70°39' E 024°34'2 0.5
2017-Oct-08 11:24N 70°40' E 024°29'1 1.2
2017-Oct-08 10:55N 70°40' E 024°31'1 0.7
2017-Oct-08 09:37N 70°39' E 024°33'1 9.6
2017-Oct-08 09:30N 70°40' E 024°31'5 9.4
2017-Oct-08 09:00N 70°44' E 024°21'5 9.1
2017-Oct-08 08:30N 70°47' E 024°13'5 9.6
2017-Oct-08 07:59N 70°52' E 024°17'3 7.2
2017-Oct-08 07:30N 70°51' E 024°27'4 4.6
2017-Oct-08 06:38N 70°48' E 024°34'1 5.7
2017-Oct-08 06:28N 70°48' E 024°36'1 1.2
2017-Oct-08 05:54N 70°49' E 024°36'0 0.0
2017-Oct-08 05:30N 70°49' E 024°36'0 0.0
2017-Oct-08 05:00N 70°49' E 024°36'0 0.0
2017-Oct-08 04:30N 70°49' E 024°36'0 0.0
2017-Oct-08 04:00N 70°49' E 024°36'0 0.0
2017-Oct-08 03:30N 70°49' E 024°36'0 0.0
2017-Oct-08 02:57N 70°49' E 024°36'0 0.0
2017-Oct-08 02:27N 70°49' E 024°36'0 0.0
2017-Oct-08 02:00N 70°49' E 024°36'0 0.0
2017-Oct-08 01:21N 70°49' E 024°36'0 0.0
2017-Oct-08 01:00N 70°49' E 024°36'0 0.0
2017-Oct-08 00:30N 70°49' E 024°36'0 0.0
2017-Oct-08 00:00N 70°49' E 024°36'0 0.0
2017-Oct-07 23:27N 70°49' E 024°36'0 0.0
2017-Oct-07 23:00N 70°49' E 024°36'0 0.0
2017-Oct-07 22:30N 70°49' E 024°36'0 0.0
2017-Oct-07 22:00N 70°49' E 024°36'0 0.0
2017-Oct-07 21:30N 70°49' E 024°36'0 0.0
2017-Oct-07 21:00N 70°49' E 024°36'0 0.0
2017-Oct-07 20:30N 70°49' E 024°36'0 0.0
2017-Oct-07 20:00N 70°49' E 024°36'0 0.0
2017-Oct-07 19:30N 70°49' E 024°36'0 0.0
2017-Oct-07 18:57N 70°49' E 024°36'0 0.0
2017-Oct-07 18:30N 70°49' E 024°36'0 0.0
2017-Oct-07 18:00N 70°49' E 024°36'0 0.0
2017-Oct-07 17:30N 70°49' E 024°36'0 0.0
2017-Oct-07 17:00N 70°49' E 024°36'0 0.0
2017-Oct-07 16:30N 70°49' E 024°36'0 0.4
2017-Oct-07 16:00N 70°49' E 024°36'0 0.4
2017-Oct-07 15:28N 70°49' E 024°36'0 0.1
2017-Oct-07 15:00N 70°49' E 024°36'0 0.0
2017-Oct-07 14:30N 70°49' E 024°36'0 0.0
2017-Oct-07 13:58N 70°49' E 024°36'0 0.1
2017-Oct-07 13:22N 70°49' E 024°35'0 0.2
2017-Oct-07 13:00N 70°49' E 024°36'0 0.1
2017-Oct-07 12:29N 70°49' E 024°36'0 0.0
2017-Oct-07 11:59N 70°49' E 024°36'0 0.1
2017-Oct-07 11:29N 70°49' E 024°36'0 0.1
2017-Oct-07 11:00N 70°49' E 024°36'0 0.1
2017-Oct-07 10:30N 70°49' E 024°36'0 0.1
2017-Oct-07 09:57N 70°49' E 024°36'0 0.1
2017-Oct-07 09:29N 70°49' E 024°36'1 0.7
2017-Oct-07 08:28N 70°48' E 024°34'4 8.7
2017-Oct-07 07:59N 70°53' E 024°33'5 9.3
2017-Oct-07 07:29N 70°57' E 024°32'4 7.3
2017-Oct-07 07:00N 70°60' E 024°39'1 1.1
2017-Oct-07 06:30N 70°60' E 024°41'0 0.0
2017-Oct-07 06:00N 70°60' E 024°41'0 0.0
2017-Oct-07 05:27N 70°60' E 024°41'2 5.6
2017-Oct-07 05:00N 70°59' E 024°34'4 9.0
2017-Oct-07 04:30N 70°55' E 024°32'5 9.5
2017-Oct-07 04:00N 70°50' E 024°33'1 2.2
2017-Oct-07 03:28N 70°49' E 024°36'0 0.0
2017-Oct-07 02:58N 70°49' E 024°36'0 0.0
2017-Oct-07 02:28N 70°49' E 024°36'0 0.0
2017-Oct-07 01:58N 70°49' E 024°36'0 0.0
2017-Oct-07 01:28N 70°49' E 024°36'0 0.0
2017-Oct-07 00:58N 70°49' E 024°36'  

Dump ship's entire track history